createdAt,value
2019-02-27T00:02:37.770Z,12.90
2019-02-27T00:07:39.151Z,9.73
2019-02-27T00:12:40.656Z,10.30
2019-02-27T00:17:42.090Z,10.03
2019-02-27T00:22:43.424Z,11.80
2019-02-27T00:27:48.731Z,14.90
2019-02-27T00:32:50.905Z,11.00
2019-02-27T00:37:52.058Z,12.63
2019-02-27T00:42:54.900Z,11.93
2019-02-27T00:47:56.383Z,14.67
2019-02-27T00:52:57.783Z,12.50
2019-02-27T00:57:59.114Z,11.33
2019-02-27T01:03:00.511Z,10.33
2019-02-27T01:08:01.852Z,11.57
2019-02-27T01:13:03.236Z,12.53
2019-02-27T01:18:05.757Z,12.70
2019-02-27T01:23:10.927Z,10.27
2019-02-27T01:28:11.092Z,15.57
2019-02-27T01:33:13.070Z,11.77
2019-02-27T01:38:14.422Z,12.47
2019-02-27T01:43:15.824Z,13.70
2019-02-27T01:48:18.226Z,15.33
2019-02-27T01:53:19.642Z,11.93
2019-02-27T01:58:21.053Z,11.47
2019-02-27T02:03:22.479Z,14.40
2019-02-27T02:08:23.869Z,13.37
2019-02-27T02:13:30.943Z,12.53
2019-02-27T02:18:49.912Z,11.00
2019-02-27T02:24:27.342Z,15.50
2019-02-27T02:29:57.218Z,10.57
2019-02-27T02:35:22.175Z,10.37
2019-02-27T02:40:31.169Z,12.37
2019-02-27T02:46:08.652Z,14.30
2019-02-27T02:51:32.661Z,11.30
2019-02-27T02:56:42.630Z,12.03
2019-02-27T03:01:52.912Z,12.80
2019-02-27T03:07:18.473Z,11.73
2019-02-27T03:12:29.865Z,11.80
2019-02-27T03:17:58.307Z,14.73
2019-02-27T03:23:28.642Z,11.80
2019-02-27T03:29:16.034Z,11.10
2019-02-27T03:34:48.187Z,11.63
2019-02-27T03:39:57.547Z,13.73
2019-02-27T03:45:54.875Z,12.60
2019-02-27T03:51:12.094Z,10.87
2019-02-27T03:56:46.412Z,12.37
2019-02-27T04:02:25.305Z,11.97
2019-02-27T04:08:08.528Z,12.57
2019-02-27T04:13:09.350Z,11.70
2019-02-27T04:18:10.402Z,14.00
2019-02-27T04:23:12.778Z,11.20
2019-02-27T04:28:14.407Z,11.53
2019-02-27T04:33:15.779Z,13.90
2019-02-27T04:38:17.171Z,13.47
2019-02-27T04:43:18.507Z,13.07
2019-02-27T04:48:19.910Z,15.90
2019-02-27T04:53:21.236Z,13.60
2019-02-27T04:58:22.634Z,13.67
2019-02-27T05:03:25.793Z,11.53
2019-02-27T05:08:27.804Z,11.07
2019-02-27T05:13:29.484Z,13.77
2019-02-27T05:18:30.815Z,13.40
2019-02-27T05:23:33.569Z,13.30
2019-02-27T05:28:35.646Z,12.87
2019-02-27T05:33:39.706Z,16.27
2019-02-27T05:38:41.081Z,16.20
2019-02-27T05:43:47.705Z,14.37
2019-02-27T05:48:46.905Z,14.43
2019-02-27T05:53:48.410Z,13.90
2019-02-27T05:58:49.824Z,12.00
2019-02-27T06:03:52.248Z,11.47
2019-02-27T06:08:54.323Z,14.53
2019-02-27T06:13:55.687Z,12.37
2019-02-27T06:18:57.063Z,12.47
2019-02-27T06:23:58.407Z,11.43
2019-02-27T06:28:59.742Z,13.43
2019-02-27T06:34:01.150Z,13.23
2019-02-27T06:39:04.828Z,14.40
2019-02-27T06:44:06.209Z,12.53
2019-02-27T06:49:07.805Z,11.50
2019-02-27T06:54:09.230Z,11.80
2019-02-27T06:59:10.857Z,12.80
2019-02-27T07:04:20.738Z,13.47
2019-02-27T07:09:22.270Z,13.00
2019-02-27T07:14:23.743Z,12.53
2019-02-27T07:19:25.165Z,13.90
2019-02-27T07:24:26.660Z,12.47
2019-02-27T07:29:28.119Z,10.60
2019-02-27T07:34:29.492Z,10.63
2019-02-27T07:39:33.402Z,15.87
2019-02-27T07:44:35.718Z,12.80
2019-02-27T07:49:37.353Z,10.93
2019-02-27T07:54:38.727Z,14.73
2019-02-27T07:59:40.079Z,12.13
2019-02-27T08:04:41.463Z,11.07
2019-02-27T08:09:42.825Z,10.57
2019-02-27T08:14:44.180Z,10.80
2019-02-27T08:19:46.101Z,11.23
2019-02-27T08:24:47.630Z,9.90
2019-02-27T08:29:48.968Z,12.83
2019-02-27T08:34:50.345Z,10.07
2019-02-27T08:39:51.915Z,10.00
2019-02-27T08:44:53.226Z,9.60
2019-02-27T08:49:57.661Z,13.70
2019-02-27T08:54:57.958Z,12.27
2019-02-27T08:59:59.300Z,6.77
2019-02-27T09:05:00.690Z,8.10
2019-02-27T09:10:04.988Z,10.93
2019-02-27T09:15:09.395Z,10.63
2019-02-27T09:20:19.753Z,10.33
2019-02-27T09:25:24.594Z,12.43
2019-02-27T09:30:28.795Z,10.00
2019-02-27T09:35:32.242Z,13.70
2019-02-27T09:40:32.266Z,10.67
2019-02-27T09:45:35.047Z,11.83
2019-02-27T09:50:42.052Z,11.93
2019-02-27T09:55:43.483Z,11.47
2019-02-27T10:00:52.124Z,11.47
2019-02-27T10:05:53.479Z,12.80
2019-02-27T10:10:54.916Z,13.30
2019-02-27T10:16:00.229Z,15.33
2019-02-27T10:20:59.759Z,13.97
2019-02-27T10:26:01.188Z,14.47
2019-02-27T10:31:02.783Z,17.57
2019-02-27T10:36:04.365Z,17.73
2019-02-27T10:41:05.823Z,18.00
2019-02-27T10:46:07.155Z,14.53
2019-02-27T10:51:09.545Z,15.73
2019-02-27T10:56:11.558Z,15.27
2019-02-27T11:01:13.026Z,19.17
2019-02-27T11:06:14.589Z,15.13
2019-02-27T11:11:16.587Z,16.27
2019-02-27T11:16:20.796Z,14.23
2019-02-27T11:21:21.349Z,14.40
2019-02-27T11:26:22.675Z,14.70
2019-02-27T11:31:24.074Z,17.23
2019-02-27T11:36:25.418Z,14.90
2019-02-27T11:41:26.871Z,13.70
2019-02-27T11:46:28.232Z,16.70
2019-02-27T11:51:29.630Z,16.63
2019-02-27T11:56:31.087Z,15.73
2019-02-27T12:01:32.468Z,13.13
2019-02-27T12:06:33.797Z,15.47
2019-02-27T12:11:35.178Z,18.97
2019-02-27T12:16:36.662Z,18.27
2019-02-27T12:21:38.123Z,16.40
2019-02-27T12:26:39.454Z,15.33
2019-02-27T12:31:41.132Z,19.60
2019-02-27T12:36:42.526Z,14.77
2019-02-27T12:41:43.953Z,23.00
2019-02-27T12:46:45.342Z,22.63
2019-02-27T12:51:46.707Z,18.60
2019-02-27T12:56:48.102Z,20.20
2019-02-27T13:01:51.679Z,19.97
2019-02-27T13:06:52.853Z,20.30
2019-02-27T13:11:54.293Z,18.90
2019-02-27T13:16:55.677Z,19.50
2019-02-27T13:21:57.051Z,20.07
2019-02-27T13:26:58.487Z,17.57
2019-02-27T13:31:59.866Z,20.40
2019-02-27T13:37:01.230Z,21.60
2019-02-27T13:42:02.699Z,20.77
2019-02-27T13:47:04.038Z,18.80
2019-02-27T13:52:05.434Z,18.50
2019-02-27T13:57:07.847Z,22.00
2019-02-27T14:02:11.355Z,20.70
2019-02-27T14:07:12.707Z,16.63
2019-02-27T14:12:14.030Z,21.67
2019-02-27T14:17:15.538Z,23.77
2019-02-27T14:22:16.863Z,18.10
2019-02-27T14:27:18.262Z,23.83
2019-02-27T14:32:19.594Z,18.80
2019-02-27T14:37:20.990Z,22.53
2019-02-27T14:42:22.330Z,22.43
2019-02-27T14:47:23.711Z,17.40
2019-02-27T14:52:25.050Z,22.10
2019-02-27T14:57:26.448Z,22.27
2019-02-27T15:02:27.834Z,22.20
2019-02-27T15:07:29.246Z,25.47
2019-02-27T15:12:30.643Z,24.53
2019-02-27T15:17:32.737Z,19.53
2019-02-27T15:22:34.185Z,21.13
2019-02-27T15:27:35.514Z,24.83
2019-02-27T15:32:36.937Z,24.97
2019-02-27T15:37:38.677Z,26.53
2019-02-27T15:42:42.718Z,24.30
2019-02-27T15:47:43.707Z,22.77
2019-02-27T15:52:45.109Z,23.97
2019-02-27T15:57:52.144Z,21.83
2019-02-27T16:02:50.647Z,24.67
2019-02-27T16:07:51.963Z,21.90
2019-02-27T16:12:53.652Z,23.43
2019-02-27T16:17:55.004Z,25.00
2019-02-27T16:22:56.394Z,25.87
2019-02-27T16:27:57.728Z,27.10
2019-02-27T16:32:59.242Z,24.20
2019-02-27T16:38:01.606Z,25.20
2019-02-27T16:43:02.966Z,26.90
2019-02-27T16:48:04.466Z,27.07
2019-02-27T16:53:06.012Z,25.03
2019-02-27T16:58:07.381Z,25.43
2019-02-27T17:03:12.972Z,26.20
2019-02-27T17:08:12.972Z,25.63
2019-02-27T17:13:15.397Z,25.17
2019-02-27T17:18:17.026Z,26.30
2019-02-27T17:23:18.343Z,25.37
2019-02-27T17:28:19.761Z,28.60
2019-02-27T17:33:21.091Z,29.67
2019-02-27T17:38:22.629Z,27.97
2019-02-27T17:43:28.565Z,26.77
2019-02-27T17:48:27.350Z,23.10
2019-02-27T17:53:28.739Z,26.57
2019-02-27T17:58:33.723Z,30.90
2019-02-27T18:03:36.596Z,27.23
2019-02-27T18:08:36.815Z,25.27
2019-02-27T18:13:38.251Z,32.47
2019-02-27T18:18:43.322Z,26.80
2019-02-27T18:23:43.262Z,30.53
2019-02-27T18:28:45.125Z,27.47
2019-02-27T18:33:49.418Z,32.47
2019-02-27T18:38:50.046Z,27.07
2019-02-27T18:43:52.875Z,25.63
2019-02-27T18:48:54.374Z,31.27
2019-02-27T18:53:55.723Z,30.77
2019-02-27T18:58:57.119Z,31.67
2019-02-27T19:04:01.251Z,35.83
2019-02-27T19:09:04.083Z,34.93
2019-02-27T19:14:06.529Z,30.20
2019-02-27T19:19:07.862Z,28.77
2019-02-27T19:24:09.250Z,29.37
2019-02-27T19:29:10.677Z,31.23
2019-02-27T19:34:12.192Z,28.60
2019-02-27T19:39:13.850Z,26.93
2019-02-27T19:44:15.187Z,30.30
2019-02-27T19:49:16.599Z,30.00
2019-02-27T19:54:18.691Z,28.63
2019-02-27T19:59:24.654Z,27.60
2019-02-27T20:04:23.332Z,29.53
2019-02-27T20:09:25.211Z,27.73
2019-02-27T20:14:26.549Z,30.27
2019-02-27T20:19:29.186Z,31.67
2019-02-27T20:24:32.465Z,32.47
2019-02-27T20:29:39.449Z,29.97
2019-02-27T20:34:37.454Z,31.30
2019-02-27T20:39:38.939Z,30.17
2019-02-27T20:44:41.213Z,30.77
2019-02-27T20:49:44.740Z,26.63
2019-02-27T20:54:45.929Z,32.17
2019-02-27T20:59:47.342Z,36.97
2019-02-27T21:04:48.733Z,26.60
2019-02-27T21:09:50.197Z,26.63
2019-02-27T21:14:51.523Z,26.20
2019-02-27T21:19:52.922Z,34.17
2019-02-27T21:24:54.350Z,34.17
2019-02-27T21:29:55.850Z,31.03
2019-02-27T21:34:57.283Z,29.27
2019-02-27T21:40:02.098Z,27.43
2019-02-27T21:45:05.507Z,28.33
2019-02-27T21:50:14.904Z,29.83
2019-02-27T21:55:16.354Z,28.97
2019-02-27T22:00:26.250Z,30.07
2019-02-27T22:05:27.814Z,32.03
2019-02-27T22:10:29.351Z,35.27
2019-02-27T22:15:30.851Z,34.17
2019-02-27T22:20:32.285Z,31.00
2019-02-27T22:25:33.800Z,32.00
2019-02-27T22:30:35.158Z,34.87
2019-02-27T22:35:37.871Z,33.60
2019-02-27T22:40:39.923Z,33.80
2019-02-27T22:45:43.975Z,34.90
2019-02-27T22:50:44.722Z,35.77
2019-02-27T22:55:46.247Z,35.33
2019-02-27T23:01:01.149Z,33.40
2019-02-27T23:06:03.222Z,37.80
2019-02-27T23:11:05.171Z,41.83
2019-02-27T23:16:06.766Z,33.23
2019-02-27T23:21:08.316Z,36.47
2019-02-27T23:26:09.721Z,36.33
2019-02-27T23:31:11.288Z,33.90
2019-02-27T23:36:12.741Z,37.03
2019-02-27T23:41:14.058Z,36.80
2019-02-27T23:46:15.695Z,36.20
2019-02-27T23:51:18.802Z,34.80
2019-02-27T23:56:20.701Z,39.33
